sensor_id;sensor_type;location;lat;lon;timestamp;P1;durP1;ratioP1;P2;durP2;ratioP2
71366;SDS011;60030;52.274;8.040;2022-11-20T00:01:29;17.90;;;11.43;;
71366;SDS011;60030;52.274;8.040;2022-11-20T00:03:56;15.87;;;10.93;;
71366;SDS011;60030;52.274;8.040;2022-11-20T00:06:24;17.57;;;10.07;;
71366;SDS011;60030;52.274;8.040;2022-11-20T00:08:53;17.57;;;10.80;;
71366;SDS011;60030;52.274;8.040;2022-11-20T00:11:22;19.60;;;10.70;;
71366;SDS011;60030;52.274;8.040;2022-11-20T00:13:50;18.10;;;10.00;;
71366;SDS011;60030;52.274;8.040;2022-11-20T00:16:20;18.27;;;11.30;;
71366;SDS011;60030;52.274;8.040;2022-11-20T00:18:49;15.90;;;10.30;;
71366;SDS011;60030;52.274;8.040;2022-11-20T00:21:18;15.57;;;10.10;;
71366;SDS011;60030;52.274;8.040;2022-11-20T00:23:47;17.03;;;10.47;;
71366;SDS011;60030;52.274;8.040;2022-11-20T00:26:14;18.30;;;10.53;;
71366;SDS011;60030;52.274;8.040;2022-11-20T00:28:43;16.83;;;10.37;;
71366;SDS011;60030;52.274;8.040;2022-11-20T00:31:15;21.63;;;11.97;;
71366;SDS011;60030;52.274;8.040;2022-11-20T00:33:43;18.63;;;10.90;;
71366;SDS011;60030;52.274;8.040;2022-11-20T00:36:12;18.17;;;10.03;;
71366;SDS011;60030;52.274;8.040;2022-11-20T00:38:41;18.73;;;11.13;;
71366;SDS011;60030;52.274;8.040;2022-11-20T00:41:09;15.83;;;10.47;;
71366;SDS011;60030;52.274;8.040;2022-11-20T00:43:41;13.83;;;9.40;;
71366;SDS011;60030;52.274;8.040;2022-11-20T00:46:09;14.97;;;9.90;;
71366;SDS011;60030;52.274;8.040;2022-11-20T00:48:38;13.67;;;9.07;;
71366;SDS011;60030;52.274;8.040;2022-11-20T00:51:06;17.97;;;10.17;;
71366;SDS011;60030;52.274;8.040;2022-11-20T00:53:35;13.77;;;9.03;;
71366;SDS011;60030;52.274;8.040;2022-11-20T00:56:03;13.83;;;9.70;;
71366;SDS011;60030;52.274;8.040;2022-11-20T00:58:32;14.33;;;8.57;;
71366;SDS011;60030;52.274;8.040;2022-11-20T01:01:01;18.60;;;9.57;;
71366;SDS011;60030;52.274;8.040;2022-11-20T01:03:30;15.77;;;9.87;;
71366;SDS011;60030;52.274;8.040;2022-11-20T01:06:01;18.87;;;10.23;;
71366;SDS011;60030;52.274;8.040;2022-11-20T01:08:29;17.43;;;11.13;;
71366;SDS011;60030;52.274;8.040;2022-11-20T01:11:02;14.57;;;10.27;;
71366;SDS011;60030;52.274;8.040;2022-11-20T01:13:31;20.00;;;11.13;;
71366;SDS011;60030;52.274;8.040;2022-11-20T01:16:04;16.73;;;10.40;;
71366;SDS011;60030;52.274;8.040;2022-11-20T01:18:32;19.60;;;10.90;;
71366;SDS011;60030;52.274;8.040;2022-11-20T01:21:00;17.27;;;10.53;;
71366;SDS011;60030;52.274;8.040;2022-11-20T01:23:32;19.70;;;10.13;;
71366;SDS011;60030;52.274;8.040;2022-11-20T01:26:02;15.00;;;9.60;;
71366;SDS011;60030;52.274;8.040;2022-11-20T01:28:30;17.37;;;10.27;;
71366;SDS011;60030;52.274;8.040;2022-11-20T01:30:58;18.60;;;11.30;;
71366;SDS011;60030;52.274;8.040;2022-11-20T01:33:25;20.43;;;11.43;;
71366;SDS011;60030;52.274;8.040;2022-11-20T01:35:52;17.33;;;10.60;;
71366;SDS011;60030;52.274;8.040;2022-11-20T01:38:20;20.10;;;11.13;;
71366;SDS011;60030;52.274;8.040;2022-11-20T01:40:53;18.53;;;11.87;;
71366;SDS011;60030;52.274;8.040;2022-11-20T01:43:22;17.07;;;10.70;;
71366;SDS011;60030;52.274;8.040;2022-11-20T01:45:52;19.00;;;11.60;;
71366;SDS011;60030;52.274;8.040;2022-11-20T01:48:26;21.57;;;11.23;;
71366;SDS011;60030;52.274;8.040;2022-11-20T01:50:58;20.80;;;12.00;;
71366;SDS011;60030;52.274;8.040;2022-11-20T01:53:28;19.80;;;10.93;;
71366;SDS011;60030;52.274;8.040;2022-11-20T01:55:58;21.03;;;11.73;;
71366;SDS011;60030;52.274;8.040;2022-11-20T01:58:30;20.97;;;11.27;;
71366;SDS011;60030;52.274;8.040;2022-11-20T02:00:59;17.13;;;10.83;;
71366;SDS011;60030;52.274;8.040;2022-11-20T02:03:26;23.20;;;11.77;;
71366;SDS011;60030;52.274;8.040;2022-11-20T02:05:55;20.20;;;11.93;;
71366;SDS011;60030;52.274;8.040;2022-11-20T02:08:27;19.97;;;11.00;;
71366;SDS011;60030;52.274;8.040;2022-11-20T02:10:55;17.40;;;10.00;;
71366;SDS011;60030;52.274;8.040;2022-11-20T02:13:22;16.40;;;10.53;;
71366;SDS011;60030;52.274;8.040;2022-11-20T02:16:09;17.17;;;10.63;;
71366;SDS011;60030;52.274;8.040;2022-11-20T02:18:39;18.33;;;11.13;;
71366;SDS011;60030;52.274;8.040;2022-11-20T02:21:08;17.40;;;10.80;;
71366;SDS011;60030;52.274;8.040;2022-11-20T02:24:03;18.40;;;9.60;;
71366;SDS011;60030;52.274;8.040;2022-11-20T02:26:33;15.90;;;9.97;;
71366;SDS011;60030;52.274;8.040;2022-11-20T02:29:04;16.70;;;10.73;;
71366;SDS011;60030;52.274;8.040;2022-11-20T02:31:38;19.17;;;10.70;;
71366;SDS011;60030;52.274;8.040;2022-11-20T02:34:07;19.30;;;11.53;;
71366;SDS011;60030;52.274;8.040;2022-11-20T02:36:35;15.37;;;9.53;;
71366;SDS011;60030;52.274;8.040;2022-11-20T02:39:06;16.60;;;10.07;;
71366;SDS011;60030;52.274;8.040;2022-11-20T02:41:34;14.47;;;9.73;;
71366;SDS011;60030;52.274;8.040;2022-11-20T02:44:02;19.77;;;10.33;;
71366;SDS011;60030;52.274;8.040;2022-11-20T02:46:30;16.80;;;8.93;;
71366;SDS011;60030;52.274;8.040;2022-11-20T02:48:58;17.00;;;10.57;;
71366;SDS011;60030;52.274;8.040;2022-11-20T02:51:25;17.90;;;10.20;;
71366;SDS011;60030;52.274;8.040;2022-11-20T02:53:52;20.10;;;10.90;;
71366;SDS011;60030;52.274;8.040;2022-11-20T02:56:20;17.23;;;9.97;;
71366;SDS011;60030;52.274;8.040;2022-11-20T02:58:48;14.03;;;8.87;;
71366;SDS011;60030;52.274;8.040;2022-11-20T03:01:15;15.80;;;10.53;;
71366;SDS011;60030;52.274;8.040;2022-11-20T03:03:42;15.17;;;9.77;;
71366;SDS011;60030;52.274;8.040;2022-11-20T03:06:09;18.17;;;10.23;;
71366;SDS011;60030;52.274;8.040;2022-11-20T03:08:36;15.03;;;10.33;;
71366;SDS011;60030;52.274;8.040;2022-11-20T03:11:04;16.63;;;10.10;;
71366;SDS011;60030;52.274;8.040;2022-11-20T03:13:33;14.10;;;9.50;;
71366;SDS011;60030;52.274;8.040;2022-11-20T03:16:10;18.17;;;11.00;;
71366;SDS011;60030;52.274;8.040;2022-11-20T03:18:38;13.83;;;9.47;;
71366;SDS011;60030;52.274;8.040;2022-11-20T03:21:06;15.67;;;9.10;;
71366;SDS011;60030;52.274;8.040;2022-11-20T03:23:34;17.07;;;8.97;;
71366;SDS011;60030;52.274;8.040;2022-11-20T03:26:11;16.27;;;9.57;;
71366;SDS011;60030;52.274;8.040;2022-11-20T03:28:41;15.73;;;8.83;;
71366;SDS011;60030;52.274;8.040;2022-11-20T03:31:13;12.43;;;8.27;;
71366;SDS011;60030;52.274;8.040;2022-11-20T03:33:41;18.97;;;9.53;;
71366;SDS011;60030;52.274;8.040;2022-11-20T03:36:10;13.60;;;9.07;;
71366;SDS011;60030;52.274;8.040;2022-11-20T03:38:39;14.40;;;8.93;;
71366;SDS011;60030;52.274;8.040;2022-11-20T03:41:07;14.03;;;8.90;;
71366;SDS011;60030;52.274;8.040;2022-11-20T03:43:36;14.93;;;7.90;;
71366;SDS011;60030;52.274;8.040;2022-11-20T03:46:04;14.20;;;8.90;;
71366;SDS011;60030;52.274;8.040;2022-11-20T03:48:32;13.07;;;8.23;;
71366;SDS011;60030;52.274;8.040;2022-11-20T03:51:06;17.73;;;9.30;;
71366;SDS011;60030;52.274;8.040;2022-11-20T03:53:34;16.77;;;9.27;;
71366;SDS011;60030;52.274;8.040;2022-11-20T03:56:01;16.03;;;9.50;;
71366;SDS011;60030;52.274;8.040;2022-11-20T03:58:29;17.67;;;10.07;;
71366;SDS011;60030;52.274;8.040;2022-11-20T04:00:56;17.33;;;9.80;;
71366;SDS011;60030;52.274;8.040;2022-11-20T04:03:24;18.93;;;9.53;;
71366;SDS011;60030;52.274;8.040;2022-11-20T04:05:52;17.60;;;10.10;;
71366;SDS011;60030;52.274;8.040;2022-11-20T04:08:19;16.97;;;10.90;;
71366;SDS011;60030;52.274;8.040;2022-11-20T04:10:46;21.70;;;10.97;;
71366;SDS011;60030;52.274;8.040;2022-11-20T04:13:13;21.63;;;11.67;;
71366;SDS011;60030;52.274;8.040;2022-11-20T04:15:40;19.93;;;10.23;;
71366;SDS011;60030;52.274;8.040;2022-11-20T04:18:07;19.37;;;11.90;;
71366;SDS011;60030;52.274;8.040;2022-11-20T04:20:36;17.63;;;10.27;;
71366;SDS011;60030;52.274;8.040;2022-11-20T04:23:03;17.83;;;9.73;;
71366;SDS011;60030;52.274;8.040;2022-11-20T04:25:30;16.13;;;9.80;;
71366;SDS011;60030;52.274;8.040;2022-11-20T04:27:57;15.20;;;8.93;;
71366;SDS011;60030;52.274;8.040;2022-11-20T04:30:24;15.77;;;9.67;;
71366;SDS011;60030;52.274;8.040;2022-11-20T04:32:51;14.13;;;8.93;;
71366;SDS011;60030;52.274;8.040;2022-11-20T04:35:18;13.83;;;9.27;;
71366;SDS011;60030;52.274;8.040;2022-11-20T04:37:46;13.03;;;8.93;;
71366;SDS011;60030;52.274;8.040;2022-11-20T04:40:13;12.37;;;8.60;;
71366;SDS011;60030;52.274;8.040;2022-11-20T04:42:41;12.13;;;7.30;;
71366;SDS011;60030;52.274;8.040;2022-11-20T04:45:08;13.20;;;8.73;;
71366;SDS011;60030;52.274;8.040;2022-11-20T04:47:35;13.47;;;7.77;;
71366;SDS011;60030;52.274;8.040;2022-11-20T04:50:02;15.27;;;8.83;;
71366;SDS011;60030;52.274;8.040;2022-11-20T04:52:29;12.80;;;8.00;;
71366;SDS011;60030;52.274;8.040;2022-11-20T04:54:58;13.23;;;8.07;;
71366;SDS011;60030;52.274;8.040;2022-11-20T04:57:25;15.50;;;8.43;;
71366;SDS011;60030;52.274;8.040;2022-11-20T04:59:52;12.33;;;7.57;;
71366;SDS011;60030;52.274;8.040;2022-11-20T05:02:19;10.67;;;7.60;;
71366;SDS011;60030;52.274;8.040;2022-11-20T05:04:46;11.93;;;6.97;;
71366;SDS011;60030;52.274;8.040;2022-11-20T05:07:14;12.37;;;7.17;;
71366;SDS011;60030;52.274;8.040;2022-11-20T05:09:41;10.90;;;7.23;;
71366;SDS011;60030;52.274;8.040;2022-11-20T05:12:09;11.40;;;7.50;;
71366;SDS011;60030;52.274;8.040;2022-11-20T05:14:36;12.40;;;6.90;;
71366;SDS011;60030;52.274;8.040;2022-11-20T05:17:04;12.87;;;7.33;;
71366;SDS011;60030;52.274;8.040;2022-11-20T05:19:31;15.57;;;7.60;;
71366;SDS011;60030;52.274;8.040;2022-11-20T05:21:58;12.13;;;6.80;;
71366;SDS011;60030;52.274;8.040;2022-11-20T05:24:25;13.03;;;7.73;;
71366;SDS011;60030;52.274;8.040;2022-11-20T05:26:52;12.33;;;7.23;;
71366;SDS011;60030;52.274;8.040;2022-11-20T05:29:20;10.63;;;7.03;;
71366;SDS011;60030;52.274;8.040;2022-11-20T05:31:47;9.53;;;6.67;;
71366;SDS011;60030;52.274;8.040;2022-11-20T05:34:14;9.93;;;7.17;;
71366;SDS011;60030;52.274;8.040;2022-11-20T05:36:41;13.53;;;7.20;;
71366;SDS011;60030;52.274;8.040;2022-11-20T05:39:08;12.57;;;7.60;;
71366;SDS011;60030;52.274;8.040;2022-11-20T05:41:35;14.50;;;8.00;;
71366;SDS011;60030;52.274;8.040;2022-11-20T05:44:02;10.97;;;7.83;;
71366;SDS011;60030;52.274;8.040;2022-11-20T05:46:31;15.70;;;8.37;;
71366;SDS011;60030;52.274;8.040;2022-11-20T05:48:58;11.93;;;8.03;;
71366;SDS011;60030;52.274;8.040;2022-11-20T05:51:25;10.97;;;7.47;;
71366;SDS011;60030;52.274;8.040;2022-11-20T05:53:53;11.60;;;6.83;;
71366;SDS011;60030;52.274;8.040;2022-11-20T05:56:22;11.20;;;7.13;;
71366;SDS011;60030;52.274;8.040;2022-11-20T05:58:49;11.33;;;7.30;;
71366;SDS011;60030;52.274;8.040;2022-11-20T06:01:17;11.97;;;7.47;;
71366;SDS011;60030;52.274;8.040;2022-11-20T06:03:47;11.10;;;7.07;;
71366;SDS011;60030;52.274;8.040;2022-11-20T06:06:15;12.37;;;7.47;;
71366;SDS011;60030;52.274;8.040;2022-11-20T06:08:43;12.77;;;7.67;;
71366;SDS011;60030;52.274;8.040;2022-11-20T06:11:11;17.13;;;8.03;;
71366;SDS011;60030;52.274;8.040;2022-11-20T06:13:40;13.03;;;7.83;;
71366;SDS011;60030;52.274;8.040;2022-11-20T06:16:07;10.23;;;7.47;;
71366;SDS011;60030;52.274;8.040;2022-11-20T06:18:35;13.13;;;7.50;;
71366;SDS011;60030;52.274;8.040;2022-11-20T06:21:04;11.13;;;7.37;;
71366;SDS011;60030;52.274;8.040;2022-11-20T06:23:33;10.87;;;7.30;;
71366;SDS011;60030;52.274;8.040;2022-11-20T06:26:02;12.97;;;8.40;;
71366;SDS011;60030;52.274;8.040;2022-11-20T06:28:29;12.53;;;7.83;;
71366;SDS011;60030;52.274;8.040;2022-11-20T06:30:57;13.80;;;7.83;;
71366;SDS011;60030;52.274;8.040;2022-11-20T06:33:24;12.43;;;8.07;;
71366;SDS011;60030;52.274;8.040;2022-11-20T06:35:51;15.10;;;8.50;;
71366;SDS011;60030;52.274;8.040;2022-11-20T06:38:20;12.00;;;7.60;;
71366;SDS011;60030;52.274;8.040;2022-11-20T06:40:47;12.93;;;8.13;;
71366;SDS011;60030;52.274;8.040;2022-11-20T06:43:14;13.27;;;8.07;;
71366;SDS011;60030;52.274;8.040;2022-11-20T06:45:41;12.73;;;7.93;;
71366;SDS011;60030;52.274;8.040;2022-11-20T06:48:08;13.00;;;8.07;;
71366;SDS011;60030;52.274;8.040;2022-11-20T06:50:36;13.67;;;7.87;;
71366;SDS011;60030;52.274;8.040;2022-11-20T06:53:04;11.20;;;8.00;;
71366;SDS011;60030;52.274;8.040;2022-11-20T06:55:33;15.57;;;8.77;;
71366;SDS011;60030;52.274;8.040;2022-11-20T06:58:00;13.83;;;8.17;;
71366;SDS011;60030;52.274;8.040;2022-11-20T07:00:27;12.03;;;8.60;;
71366;SDS011;60030;52.274;8.040;2022-11-20T07:02:54;13.57;;;8.50;;
71366;SDS011;60030;52.274;8.040;2022-11-20T07:05:21;14.90;;;8.43;;
71366;SDS011;60030;52.274;8.040;2022-11-20T07:07:48;13.33;;;8.27;;
71366;SDS011;60030;52.274;8.040;2022-11-20T07:10:15;13.57;;;8.93;;
71366;SDS011;60030;52.274;8.040;2022-11-20T07:12:48;11.80;;;7.47;;
71366;SDS011;60030;52.274;8.040;2022-11-20T07:15:15;13.20;;;7.97;;
71366;SDS011;60030;52.274;8.040;2022-11-20T07:17:43;13.07;;;8.33;;
71366;SDS011;60030;52.274;8.040;2022-11-20T07:20:10;13.77;;;8.80;;
71366;SDS011;60030;52.274;8.040;2022-11-20T07:22:38;11.93;;;7.63;;
71366;SDS011;60030;52.274;8.040;2022-11-20T07:25:05;14.00;;;7.90;;
71366;SDS011;60030;52.274;8.040;2022-11-20T07:27:34;11.63;;;7.73;;
71366;SDS011;60030;52.274;8.040;2022-11-20T07:30:03;12.70;;;8.20;;
71366;SDS011;60030;52.274;8.040;2022-11-20T07:32:31;11.60;;;8.17;;
71366;SDS011;60030;52.274;8.040;2022-11-20T07:34:58;12.13;;;8.07;;
71366;SDS011;60030;52.274;8.040;2022-11-20T07:37:25;10.17;;;7.20;;
71366;SDS011;60030;52.274;8.040;2022-11-20T07:39:52;14.50;;;7.70;;
71366;SDS011;60030;52.274;8.040;2022-11-20T07:42:19;11.67;;;7.00;;
71366;SDS011;60030;52.274;8.040;2022-11-20T07:44:49;12.90;;;7.37;;
71366;SDS011;60030;52.274;8.040;2022-11-20T07:47:17;15.73;;;7.87;;
71366;SDS011;60030;52.274;8.040;2022-11-20T07:49:44;12.53;;;6.73;;
71366;SDS011;60030;52.274;8.040;2022-11-20T07:52:11;10.87;;;6.40;;
71366;SDS011;60030;52.274;8.040;2022-11-20T07:54:38;9.97;;;6.53;;
71366;SDS011;60030;52.274;8.040;2022-11-20T07:57:05;10.23;;;6.77;;
71366;SDS011;60030;52.274;8.040;2022-11-20T07:59:32;11.83;;;6.87;;
71366;SDS011;60030;52.274;8.040;2022-11-20T08:01:59;12.07;;;6.70;;
71366;SDS011;60030;52.274;8.040;2022-11-20T08:04:27;10.40;;;6.57;;
71366;SDS011;60030;52.274;8.040;2022-11-20T08:06:54;10.27;;;7.30;;
71366;SDS011;60030;52.274;8.040;2022-11-20T08:09:21;11.67;;;6.77;;
71366;SDS011;60030;52.274;8.040;2022-11-20T08:11:48;11.87;;;7.90;;
71366;SDS011;60030;52.274;8.040;2022-11-20T08:14:33;12.50;;;7.33;;
71366;SDS011;60030;52.274;8.040;2022-11-20T08:17:00;13.20;;;7.40;;
71366;SDS011;60030;52.274;8.040;2022-11-20T08:19:28;9.73;;;6.53;;
71366;SDS011;60030;52.274;8.040;2022-11-20T08:21:55;10.70;;;7.37;;
71366;SDS011;60030;52.274;8.040;2022-11-20T08:24:22;10.23;;;7.90;;
71366;SDS011;60030;52.274;8.040;2022-11-20T08:26:50;10.00;;;7.17;;
71366;SDS011;60030;52.274;8.040;2022-11-20T08:29:17;10.60;;;7.27;;
71366;SDS011;60030;52.274;8.040;2022-11-20T08:31:44;9.00;;;6.57;;
71366;SDS011;60030;52.274;8.040;2022-11-20T08:34:11;9.30;;;6.93;;
71366;SDS011;60030;52.274;8.040;2022-11-20T08:36:40;12.50;;;7.87;;
71366;SDS011;60030;52.274;8.040;2022-11-20T08:39:07;9.40;;;6.97;;
71366;SDS011;60030;52.274;8.040;2022-11-20T08:41:34;12.27;;;7.20;;
71366;SDS011;60030;52.274;8.040;2022-11-20T08:44:02;10.93;;;7.50;;
71366;SDS011;60030;52.274;8.040;2022-11-20T08:46:31;11.70;;;7.10;;
71366;SDS011;60030;52.274;8.040;2022-11-20T08:49:00;14.97;;;6.90;;
71366;SDS011;60030;52.274;8.040;2022-11-20T08:51:27;12.73;;;8.47;;
71366;SDS011;60030;52.274;8.040;2022-11-20T08:53:56;11.53;;;8.03;;
71366;SDS011;60030;52.274;8.040;2022-11-20T08:56:23;14.83;;;7.53;;
71366;SDS011;60030;52.274;8.040;2022-11-20T08:58:50;11.03;;;8.00;;
71366;SDS011;60030;52.274;8.040;2022-11-20T09:01:17;12.03;;;7.87;;
71366;SDS011;60030;52.274;8.040;2022-11-20T09:03:45;11.47;;;8.13;;
71366;SDS011;60030;52.274;8.040;2022-11-20T09:06:12;14.90;;;7.97;;
71366;SDS011;60030;52.274;8.040;2022-11-20T09:08:40;13.30;;;8.80;;
71366;SDS011;60030;52.274;8.040;2022-11-20T09:11:08;15.00;;;8.17;;
71366;SDS011;60030;52.274;8.040;2022-11-20T09:13:36;14.33;;;7.93;;
71366;SDS011;60030;52.274;8.040;2022-11-20T09:16:04;14.93;;;8.93;;
71366;SDS011;60030;52.274;8.040;2022-11-20T09:18:33;12.60;;;8.70;;
71366;SDS011;60030;52.274;8.040;2022-11-20T09:21:03;14.30;;;8.97;;
71366;SDS011;60030;52.274;8.040;2022-11-20T09:23:32;16.70;;;9.30;;
71366;SDS011;60030;52.274;8.040;2022-11-20T09:26:01;15.27;;;9.40;;
71366;SDS011;60030;52.274;8.040;2022-11-20T09:28:31;15.37;;;9.13;;
71366;SDS011;60030;52.274;8.040;2022-11-20T09:30:58;15.37;;;8.83;;
71366;SDS011;60030;52.274;8.040;2022-11-20T09:33:26;16.40;;;9.07;;
71366;SDS011;60030;52.274;8.040;2022-11-20T09:35:53;19.23;;;9.53;;
71366;SDS011;60030;52.274;8.040;2022-11-20T09:38:20;14.83;;;9.43;;
71366;SDS011;60030;52.274;8.040;2022-11-20T09:40:50;17.53;;;9.73;;
71366;SDS011;60030;52.274;8.040;2022-11-20T09:43:23;20.87;;;9.23;;
71366;SDS011;60030;52.274;8.040;2022-11-20T09:46:03;20.63;;;9.87;;
71366;SDS011;60030;52.274;8.040;2022-11-20T09:48:42;16.47;;;9.10;;
71366;SDS011;60030;52.274;8.040;2022-11-20T09:51:21;20.37;;;10.40;;
71366;SDS011;60030;52.274;8.040;2022-11-20T09:54:01;19.00;;;10.30;;
71366;SDS011;60030;52.274;8.040;2022-11-20T09:56:36;21.97;;;11.07;;
71366;SDS011;60030;52.274;8.040;2022-11-20T09:59:07;20.17;;;10.10;;
71366;SDS011;60030;52.274;8.040;2022-11-20T10:01:47;19.60;;;10.57;;
71366;SDS011;60030;52.274;8.040;2022-11-20T10:04:15;21.87;;;11.07;;
71366;SDS011;60030;52.274;8.040;2022-11-20T10:06:46;22.17;;;11.07;;
71366;SDS011;60030;52.274;8.040;2022-11-20T10:09:20;20.70;;;11.00;;
71366;SDS011;60030;52.274;8.040;2022-11-20T10:11:56;21.57;;;10.50;;
71366;SDS011;60030;52.274;8.040;2022-11-20T10:14:35;22.63;;;10.70;;
71366;SDS011;60030;52.274;8.040;2022-11-20T10:17:11;25.17;;;11.77;;
71366;SDS011;60030;52.274;8.040;2022-11-20T10:19:50;21.53;;;10.97;;
71366;SDS011;60030;52.274;8.040;2022-11-20T10:22:30;21.07;;;11.43;;
71366;SDS011;60030;52.274;8.040;2022-11-20T10:25:10;26.20;;;12.50;;
71366;SDS011;60030;52.274;8.040;2022-11-20T10:30:40;28.47;;;13.67;;
71366;SDS011;60030;52.274;8.040;2022-11-20T10:33:13;27.60;;;12.93;;
71366;SDS011;60030;52.274;8.040;2022-11-20T10:35:44;23.90;;;11.43;;
71366;SDS011;60030;52.274;8.040;2022-11-20T10:38:19;24.07;;;12.83;;
71366;SDS011;60030;52.274;8.040;2022-11-20T10:40:51;27.87;;;13.27;;
71366;SDS011;60030;52.274;8.040;2022-11-20T10:43:42;24.30;;;11.73;;
71366;SDS011;60030;52.274;8.040;2022-11-20T10:46:12;24.63;;;11.93;;
71366;SDS011;60030;52.274;8.040;2022-11-20T10:48:44;26.00;;;13.03;;
71366;SDS011;60030;52.274;8.040;2022-11-20T10:51:14;24.63;;;12.30;;
71366;SDS011;60030;52.274;8.040;2022-11-20T10:53:51;26.13;;;12.73;;
71366;SDS011;60030;52.274;8.040;2022-11-20T10:56:24;21.13;;;11.77;;
71366;SDS011;60030;52.274;8.040;2022-11-20T10:59:03;24.67;;;12.63;;
71366;SDS011;60030;52.274;8.040;2022-11-20T11:01:45;24.47;;;11.83;;
71366;SDS011;60030;52.274;8.040;2022-11-20T11:04:18;25.33;;;13.07;;
71366;SDS011;60030;52.274;8.040;2022-11-20T11:06:56;29.53;;;13.53;;
71366;SDS011;60030;52.274;8.040;2022-11-20T11:09:33;33.93;;;16.90;;
71366;SDS011;60030;52.274;8.040;2022-11-20T11:12:06;53.67;;;24.27;;
71366;SDS011;60030;52.274;8.040;2022-11-20T11:14:41;29.37;;;16.40;;
71366;SDS011;60030;52.274;8.040;2022-11-20T11:17:18;25.00;;;12.73;;
71366;SDS011;60030;52.274;8.040;2022-11-20T11:19:57;22.60;;;11.00;;
71366;SDS011;60030;52.274;8.040;2022-11-20T11:22:25;22.67;;;12.27;;
71366;SDS011;60030;52.274;8.040;2022-11-20T11:24:56;19.40;;;10.97;;
71366;SDS011;60030;52.274;8.040;2022-11-20T11:27:23;21.93;;;11.13;;
71366;SDS011;60030;52.274;8.040;2022-11-20T11:29:50;18.03;;;9.90;;
71366;SDS011;60030;52.274;8.040;2022-11-20T11:32:29;19.30;;;10.10;;
71366;SDS011;60030;52.274;8.040;2022-11-20T11:35:01;17.00;;;9.33;;
71366;SDS011;60030;52.274;8.040;2022-11-20T11:37:32;18.17;;;9.93;;
71366;SDS011;60030;52.274;8.040;2022-11-20T11:40:01;15.47;;;9.10;;
71366;SDS011;60030;52.274;8.040;2022-11-20T11:42:29;18.90;;;9.23;;
71366;SDS011;60030;52.274;8.040;2022-11-20T11:44:56;19.53;;;9.23;;
71366;SDS011;60030;52.274;8.040;2022-11-20T11:47:31;19.07;;;9.80;;
71366;SDS011;60030;52.274;8.040;2022-11-20T11:50:07;15.43;;;8.70;;
71366;SDS011;60030;52.274;8.040;2022-11-20T11:52:42;15.87;;;9.07;;
71366;SDS011;60030;52.274;8.040;2022-11-20T11:55:14;15.77;;;8.57;;
71366;SDS011;60030;52.274;8.040;2022-11-20T11:57:49;17.73;;;9.23;;
71366;SDS011;60030;52.274;8.040;2022-11-20T12:00:21;15.23;;;8.87;;
71366;SDS011;60030;52.274;8.040;2022-11-20T12:02:52;16.17;;;9.17;;
71366;SDS011;60030;52.274;8.040;2022-11-20T12:05:27;17.43;;;9.23;;
71366;SDS011;60030;52.274;8.040;2022-11-20T12:07:57;16.73;;;9.73;;
71366;SDS011;60030;52.274;8.040;2022-11-20T12:10:33;16.57;;;9.30;;
71366;SDS011;60030;52.274;8.040;2022-11-20T12:13:10;19.10;;;10.50;;
71366;SDS011;60030;52.274;8.040;2022-11-20T12:15:47;19.53;;;10.93;;
71366;SDS011;60030;52.274;8.040;2022-11-20T12:18:15;19.80;;;10.33;;
71366;SDS011;60030;52.274;8.040;2022-11-20T12:20:48;22.00;;;10.57;;
71366;SDS011;60030;52.274;8.040;2022-11-20T12:23:26;20.70;;;11.17;;
71366;SDS011;60030;52.274;8.040;2022-11-20T12:26:03;21.60;;;11.87;;
71366;SDS011;60030;52.274;8.040;2022-11-20T12:28:37;17.67;;;10.67;;
71366;SDS011;60030;52.274;8.040;2022-11-20T12:31:14;21.30;;;11.00;;
71366;SDS011;60030;52.274;8.040;2022-11-20T12:36:45;20.80;;;11.60;;
71366;SDS011;60030;52.274;8.040;2022-11-20T12:42:20;21.33;;;11.73;;
71366;SDS011;60030;52.274;8.040;2022-11-20T12:48:17;21.67;;;12.33;;
71366;SDS011;60030;52.274;8.040;2022-11-20T12:51:05;21.83;;;12.50;;
71366;SDS011;60030;52.274;8.040;2022-11-20T12:54:03;21.00;;;11.80;;
71366;SDS011;60030;52.274;8.040;2022-11-20T12:56:48;22.13;;;13.27;;
71366;SDS011;60030;52.274;8.040;2022-11-20T12:59:29;22.30;;;12.37;;
71366;SDS011;60030;52.274;8.040;2022-11-20T13:02:18;22.40;;;12.83;;
71366;SDS011;60030;52.274;8.040;2022-11-20T13:04:58;23.00;;;13.10;;
71366;SDS011;60030;52.274;8.040;2022-11-20T13:07:36;24.73;;;14.07;;
71366;SDS011;60030;52.274;8.040;2022-11-20T13:10:05;22.53;;;13.83;;
71366;SDS011;60030;52.274;8.040;2022-11-20T13:12:44;23.60;;;13.67;;
71366;SDS011;60030;52.274;8.040;2022-11-20T13:15:16;20.60;;;13.03;;
71366;SDS011;60030;52.274;8.040;2022-11-20T13:17:51;23.53;;;13.63;;
71366;SDS011;60030;52.274;8.040;2022-11-20T13:20:21;21.03;;;13.20;;
71366;SDS011;60030;52.274;8.040;2022-11-20T13:22:49;19.63;;;12.77;;
71366;SDS011;60030;52.274;8.040;2022-11-20T13:25:25;22.47;;;13.27;;
71366;SDS011;60030;52.274;8.040;2022-11-20T13:27:54;22.77;;;13.57;;
71366;SDS011;60030;52.274;8.040;2022-11-20T13:30:23;22.57;;;12.80;;
71366;SDS011;60030;52.274;8.040;2022-11-20T13:32:52;20.60;;;13.43;;
71366;SDS011;60030;52.274;8.040;2022-11-20T13:35:24;21.47;;;13.13;;
71366;SDS011;60030;52.274;8.040;2022-11-20T13:38:00;19.43;;;12.73;;
71366;SDS011;60030;52.274;8.040;2022-11-20T13:40:34;19.30;;;12.50;;
71366;SDS011;60030;52.274;8.040;2022-11-20T13:43:17;21.85;;;14.57;;
71366;SDS011;60030;52.274;8.040;2022-11-20T13:45:55;19.90;;;12.50;;
71366;SDS011;60030;52.274;8.040;2022-11-20T13:48:26;22.33;;;13.27;;
71366;SDS011;60030;52.274;8.040;2022-11-20T13:51:12;19.03;;;12.30;;
71366;SDS011;60030;52.274;8.040;2022-11-20T13:57:03;18.47;;;12.37;;
71366;SDS011;60030;52.274;8.040;2022-11-20T13:59:45;16.53;;;11.50;;
71366;SDS011;60030;52.274;8.040;2022-11-20T14:02:23;19.77;;;11.90;;
71366;SDS011;60030;52.274;8.040;2022-11-20T14:04:54;20.97;;;12.47;;
71366;SDS011;60030;52.274;8.040;2022-11-20T14:07:24;18.97;;;12.17;;
71366;SDS011;60030;52.274;8.040;2022-11-20T14:09:57;18.47;;;12.47;;
71366;SDS011;60030;52.274;8.040;2022-11-20T14:12:28;23.03;;;13.23;;
71366;SDS011;60030;52.274;8.040;2022-11-20T14:14:56;18.67;;;12.07;;
71366;SDS011;60030;52.274;8.040;2022-11-20T14:17:29;20.00;;;12.87;;
71366;SDS011;60030;52.274;8.040;2022-11-20T14:19:58;20.27;;;12.27;;
71366;SDS011;60030;52.274;8.040;2022-11-20T14:22:27;22.10;;;13.80;;
71366;SDS011;60030;52.274;8.040;2022-11-20T14:25:01;22.13;;;12.73;;
71366;SDS011;60030;52.274;8.040;2022-11-20T14:27:34;37.80;;;21.20;;
71366;SDS011;60030;52.274;8.040;2022-11-20T14:30:03;44.73;;;25.10;;
71366;SDS011;60030;52.274;8.040;2022-11-20T14:32:32;43.70;;;24.87;;
71366;SDS011;60030;52.274;8.040;2022-11-20T14:35:02;35.87;;;19.87;;
71366;SDS011;60030;52.274;8.040;2022-11-20T14:37:36;36.27;;;18.83;;
71366;SDS011;60030;52.274;8.040;2022-11-20T14:40:20;25.63;;;16.13;;
71366;SDS011;60030;52.274;8.040;2022-11-20T14:42:54;21.67;;;13.53;;
71366;SDS011;60030;52.274;8.040;2022-11-20T14:45:22;19.87;;;12.67;;
71366;SDS011;60030;52.274;8.040;2022-11-20T14:47:50;20.83;;;13.60;;
71366;SDS011;60030;52.274;8.040;2022-11-20T14:50:20;21.30;;;13.73;;
71366;SDS011;60030;52.274;8.040;2022-11-20T14:52:50;29.50;;;18.00;;
71366;SDS011;60030;52.274;8.040;2022-11-20T14:55:28;21.23;;;14.27;;
71366;SDS011;60030;52.274;8.040;2022-11-20T14:57:58;22.83;;;13.77;;
71366;SDS011;60030;52.274;8.040;2022-11-20T15:00:27;24.03;;;15.67;;
71366;SDS011;60030;52.274;8.040;2022-11-20T15:02:55;23.00;;;15.40;;